createdAt,value
2023-04-10T00:01:38.760Z,11.22
2023-04-10T00:04:06.502Z,11.21
2023-04-10T00:06:33.978Z,11.32
2023-04-10T00:09:01.319Z,11.38
2023-04-10T00:11:29.454Z,11.40
2023-04-10T00:13:56.822Z,11.28
2023-04-10T00:16:24.188Z,11.09
2023-04-10T00:18:51.728Z,11.12
2023-04-10T00:21:19.095Z,11.03
2023-04-10T00:23:46.467Z,10.98
2023-04-10T00:26:13.906Z,11.00
2023-04-10T00:28:43.286Z,11.05
2023-04-10T00:31:10.719Z,10.86
2023-04-10T00:33:38.109Z,10.82
2023-04-10T00:36:05.816Z,10.75
2023-04-10T00:38:33.224Z,10.80
2023-04-10T00:41:00.765Z,10.89
2023-04-10T00:43:28.187Z,10.94
2023-04-10T00:45:55.655Z,10.86
2023-04-10T00:48:24.029Z,10.98
2023-04-10T00:50:51.535Z,11.00
2023-04-10T00:53:18.888Z,10.94
2023-04-10T00:55:46.935Z,10.78
2023-04-10T00:58:14.781Z,10.71
2023-04-10T01:00:42.208Z,10.81
2023-04-10T01:03:11.875Z,10.80
2023-04-10T01:05:49.733Z,10.89
2023-04-10T01:08:36.781Z,10.85
2023-04-10T01:11:34.368Z,10.63
2023-04-10T01:14:20.486Z,10.67
2023-04-10T01:16:58.638Z,10.68
2023-04-10T01:19:34.120Z,10.60
2023-04-10T01:22:03.866Z,10.65
2023-04-10T01:25:01.733Z,10.59
2023-04-10T01:27:45.677Z,10.48
2023-04-10T01:30:18.340Z,10.40
2023-04-10T01:32:46.110Z,10.43
2023-04-10T01:35:15.900Z,10.34
2023-04-10T01:37:46.261Z,10.19
2023-04-10T01:40:15.936Z,10.08
2023-04-10T01:42:55.414Z,10.06
2023-04-10T01:45:29.347Z,10.04
2023-04-10T01:47:57.753Z,10.03
2023-04-10T01:50:28.644Z,9.97
2023-04-10T01:52:57.409Z,9.97
2023-04-10T01:55:27.825Z,9.92
2023-04-10T01:58:06.023Z,9.98
2023-04-10T02:00:43.939Z,9.90
2023-04-10T02:03:14.527Z,9.92
2023-04-10T02:06:17.856Z,9.94
2023-04-10T02:08:56.459Z,9.88
2023-04-10T02:11:49.419Z,9.87
2023-04-10T02:14:20.552Z,9.81
2023-04-10T02:16:50.972Z,9.45
2023-04-10T02:19:19.952Z,9.39
2023-04-10T02:21:47.897Z,9.28
2023-04-10T02:24:15.684Z,9.13
2023-04-10T02:26:53.202Z,9.13
2023-04-10T02:29:20.583Z,8.97
2023-04-10T02:31:48.984Z,9.05
2023-04-10T02:34:16.585Z,8.90
2023-04-10T02:36:43.997Z,8.96
2023-04-10T02:39:12.997Z,9.09
2023-04-10T02:41:48.233Z,9.08
2023-04-10T02:44:15.919Z,9.03
2023-04-10T02:46:44.016Z,8.84
2023-04-10T02:49:12.941Z,8.69
2023-04-10T02:51:40.510Z,8.69
2023-04-10T02:54:07.885Z,8.73
2023-04-10T02:56:36.485Z,8.64
2023-04-10T02:59:03.993Z,8.69
2023-04-10T03:01:32.250Z,8.62
2023-04-10T03:04:00.515Z,8.49
2023-04-10T03:06:31.826Z,8.46
2023-04-10T03:08:59.516Z,8.39
2023-04-10T03:11:28.105Z,8.43
2023-04-10T03:13:58.344Z,8.42
2023-04-10T03:16:26.449Z,8.45
2023-04-10T03:18:54.120Z,8.55
2023-04-10T03:21:21.931Z,8.51
2023-04-10T03:23:49.878Z,8.45
2023-04-10T03:26:17.287Z,8.40
2023-04-10T03:28:45.000Z,8.42
2023-04-10T03:31:12.486Z,8.41
2023-04-10T03:33:42.197Z,8.43
2023-04-10T03:36:11.580Z,8.40
2023-04-10T03:38:39.127Z,8.31
2023-04-10T03:41:09.119Z,8.35
2023-04-10T03:43:36.671Z,8.42
2023-04-10T03:46:05.768Z,8.32
2023-04-10T03:48:35.532Z,8.39
2023-04-10T03:51:03.032Z,8.18
2023-04-10T03:53:30.480Z,8.19
2023-04-10T03:55:57.971Z,7.99
2023-04-10T03:58:25.949Z,7.99
2023-04-10T04:00:55.565Z,7.95
2023-04-10T04:03:43.495Z,7.88
2023-04-10T04:06:44.704Z,7.88
2023-04-10T04:09:25.335Z,8.04
2023-04-10T04:12:18.276Z,8.12
2023-04-10T04:15:06.422Z,8.06
2023-04-10T04:17:50.380Z,7.99
2023-04-10T04:20:44.127Z,7.84
2023-04-10T04:23:29.876Z,7.62
2023-04-10T04:26:10.477Z,7.75
2023-04-10T04:28:56.485Z,7.66
2023-04-10T04:31:44.007Z,7.75
2023-04-10T04:34:18.013Z,7.83
2023-04-10T04:37:05.512Z,7.82
2023-04-10T04:39:32.942Z,7.83
2023-04-10T04:42:08.352Z,7.82
2023-04-10T04:44:54.481Z,7.84
2023-04-10T04:47:40.832Z,7.68
2023-04-10T04:50:30.686Z,7.72
2023-04-10T04:53:16.576Z,7.74
2023-04-10T04:56:09.965Z,7.65
2023-04-10T04:58:52.401Z,7.66
2023-04-10T05:01:49.178Z,7.48
2023-04-10T05:04:35.441Z,7.26
2023-04-10T05:07:11.211Z,7.34
2023-04-10T05:09:58.868Z,7.42
2023-04-10T05:12:45.031Z,7.43
2023-04-10T05:15:39.436Z,7.66
2023-04-10T05:18:14.206Z,7.72
2023-04-10T05:21:07.907Z,7.48
2023-04-10T05:23:53.949Z,7.46
2023-04-10T05:26:32.407Z,7.52
2023-04-10T05:29:13.711Z,7.74
2023-04-10T05:32:08.176Z,7.80
2023-04-10T05:34:58.687Z,7.68
2023-04-10T05:37:34.499Z,7.84
2023-04-10T05:40:14.058Z,7.74
2023-04-10T05:43:00.955Z,7.75
2023-04-10T05:45:51.130Z,7.71
2023-04-10T05:48:31.401Z,7.93
2023-04-10T05:51:17.710Z,8.01
2023-04-10T05:54:08.348Z,8.00
2023-04-10T05:56:49.530Z,8.00
2023-04-10T05:59:35.654Z,7.93
2023-04-10T06:02:23.482Z,8.15
2023-04-10T06:04:51.700Z,8.27
2023-04-10T06:07:19.744Z,8.30
2023-04-10T06:09:47.224Z,8.33
2023-04-10T06:12:14.633Z,8.25
2023-04-10T06:14:42.399Z,8.21
2023-04-10T06:17:09.893Z,8.31
2023-04-10T06:19:37.273Z,8.58
2023-04-10T06:22:04.920Z,8.77
2023-04-10T06:24:32.507Z,8.75
2023-04-10T06:26:59.971Z,8.94
2023-04-10T06:29:27.408Z,9.23
2023-04-10T06:31:55.045Z,9.34
2023-04-10T06:34:22.586Z,9.56
2023-04-10T06:36:58.114Z,9.83
2023-04-10T06:39:26.518Z,10.13
2023-04-10T06:41:53.998Z,10.00
2023-04-10T06:44:33.135Z,10.37
2023-04-10T06:47:00.625Z,10.65
2023-04-10T06:49:27.975Z,10.94
2023-04-10T06:51:55.449Z,10.89
2023-04-10T06:54:22.840Z,11.25
2023-04-10T06:56:50.343Z,11.15
2023-04-10T06:59:17.812Z,11.63
2023-04-10T07:01:45.439Z,11.91
2023-04-10T07:04:12.874Z,11.67
2023-04-10T07:06:40.860Z,11.72
2023-04-10T07:09:08.234Z,11.72
2023-04-10T07:11:35.615Z,11.70
2023-04-10T07:14:03.072Z,11.83
2023-04-10T07:16:31.018Z,11.96
2023-04-10T07:18:58.414Z,11.83
2023-04-10T07:21:27.258Z,12.07
2023-04-10T07:23:55.072Z,12.15
2023-04-10T07:26:22.510Z,12.16
2023-04-10T07:28:49.952Z,12.39
2023-04-10T07:31:18.325Z,12.31
2023-04-10T07:33:46.852Z,12.51
2023-04-10T07:36:14.302Z,12.48
2023-04-10T07:38:42.515Z,12.70
2023-04-10T07:41:12.138Z,12.99
2023-04-10T07:43:39.680Z,13.29
2023-04-10T07:46:07.217Z,13.35
2023-04-10T07:48:41.066Z,13.98
2023-04-10T07:51:11.560Z,13.62
2023-04-10T07:53:39.179Z,13.90
2023-04-10T07:56:07.281Z,14.03
2023-04-10T07:58:34.681Z,14.78
2023-04-10T08:01:02.052Z,14.48
2023-04-10T08:03:29.645Z,14.64
2023-04-10T08:05:57.169Z,16.35
2023-04-10T08:08:24.748Z,15.81
2023-04-10T08:10:52.193Z,14.67
2023-04-10T08:13:19.567Z,15.76
2023-04-10T08:15:46.955Z,15.62
2023-04-10T08:18:14.289Z,14.95
2023-04-10T08:20:41.764Z,14.26
2023-04-10T08:25:39.651Z,15.34
2023-04-10T08:28:07.003Z,15.09
2023-04-10T08:30:34.397Z,14.92
2023-04-10T08:33:01.779Z,14.41
2023-04-10T08:35:29.091Z,14.43
2023-04-10T08:38:11.806Z,14.45
2023-04-10T08:40:41.353Z,14.61
2023-04-10T08:43:08.748Z,14.68
2023-04-10T08:45:36.056Z,14.30
2023-04-10T08:48:06.377Z,14.15
2023-04-10T08:50:47.131Z,14.17
2023-04-10T08:53:16.544Z,14.80
2023-04-10T08:55:45.823Z,14.77
2023-04-10T08:58:13.945Z,15.17
2023-04-10T09:00:41.593Z,16.05
2023-04-10T09:03:11.972Z,16.04
2023-04-10T09:05:39.746Z,15.78
2023-04-10T09:08:08.404Z,15.59
2023-04-10T09:10:35.817Z,16.24
2023-04-10T09:13:03.240Z,17.00
2023-04-10T09:15:30.912Z,18.06
2023-04-10T09:18:03.148Z,18.38
2023-04-10T09:20:32.358Z,19.17
2023-04-10T09:22:59.772Z,17.61
2023-04-10T09:25:32.755Z,17.23
2023-04-10T09:28:02.483Z,16.23
2023-04-10T09:30:40.579Z,15.86
2023-04-10T09:33:28.053Z,15.59
2023-04-10T09:35:58.273Z,15.65
2023-04-10T09:38:25.916Z,15.50
2023-04-10T09:40:54.414Z,15.57
2023-04-10T09:43:26.995Z,15.53
2023-04-10T09:45:57.375Z,15.63
2023-04-10T09:48:26.735Z,15.70
2023-04-10T09:50:54.278Z,15.57
2023-04-10T09:53:21.829Z,15.67
2023-04-10T09:55:49.831Z,15.72
2023-04-10T09:58:17.940Z,15.47
2023-04-10T10:00:46.971Z,15.52
2023-04-10T10:03:16.728Z,15.44
2023-04-10T10:05:53.454Z,15.74
2023-04-10T10:08:22.172Z,15.50
2023-04-10T10:10:55.691Z,15.56
2023-04-10T10:13:57.109Z,15.50
2023-04-10T10:16:39.592Z,15.30
2023-04-10T10:19:15.098Z,15.36
2023-04-10T10:21:44.700Z,15.34
2023-04-10T10:24:13.216Z,15.23
2023-04-10T10:26:40.696Z,15.24
2023-04-10T10:29:13.996Z,15.43
2023-04-10T10:31:42.552Z,15.35
2023-04-10T10:34:09.980Z,15.32
2023-04-10T10:36:38.159Z,15.36
2023-04-10T10:39:33.222Z,15.34
2023-04-10T10:42:12.950Z,15.79
2023-04-10T10:44:47.700Z,15.72
2023-04-10T10:47:24.421Z,15.44
2023-04-10T10:50:25.308Z,15.85
2023-04-10T10:52:54.110Z,15.86
2023-04-10T10:55:39.649Z,15.90
2023-04-10T10:58:08.897Z,15.84
2023-04-10T11:00:51.425Z,15.69
2023-04-10T11:03:19.066Z,15.73
2023-04-10T11:05:55.549Z,15.57
2023-04-10T11:08:46.007Z,15.62
2023-04-10T11:11:20.136Z,15.89
2023-04-10T11:13:53.386Z,15.85
2023-04-10T11:16:21.392Z,15.92
2023-04-10T11:18:55.960Z,15.91
2023-04-10T11:21:35.587Z,15.81
2023-04-10T11:24:04.565Z,15.81
2023-04-10T11:26:43.867Z,15.84
2023-04-10T11:29:14.283Z,15.89
2023-04-10T11:31:43.410Z,15.83
2023-04-10T11:34:11.718Z,15.69
2023-04-10T11:36:41.534Z,15.66
2023-04-10T11:39:13.366Z,15.69
2023-04-10T11:41:42.946Z,15.80
2023-04-10T11:44:12.040Z,15.88
2023-04-10T11:46:51.293Z,15.86
2023-04-10T11:49:24.087Z,15.80
2023-04-10T11:51:58.830Z,15.88
2023-04-10T11:54:30.108Z,15.68
2023-04-10T11:57:07.110Z,15.81
2023-04-10T11:59:35.450Z,15.74
2023-04-10T12:02:07.753Z,15.68
2023-04-10T12:04:36.571Z,15.78
2023-04-10T12:07:04.300Z,15.95
2023-04-10T12:09:31.842Z,16.12
2023-04-10T12:11:59.945Z,15.91
2023-04-10T12:14:32.357Z,16.04
2023-04-10T12:17:01.014Z,15.94
2023-04-10T12:19:28.810Z,16.05
2023-04-10T12:21:58.304Z,15.74
2023-04-10T12:24:46.703Z,16.09
2023-04-10T12:27:27.694Z,16.03
2023-04-10T12:29:57.403Z,16.26
2023-04-10T12:32:27.529Z,16.23
2023-04-10T12:34:58.492Z,15.97
2023-04-10T12:37:47.406Z,16.06
2023-04-10T12:40:15.458Z,16.25
2023-04-10T12:42:44.642Z,16.23
2023-04-10T12:45:14.183Z,16.57
2023-04-10T12:47:47.105Z,16.62
2023-04-10T12:50:16.614Z,16.39
2023-04-10T12:52:46.144Z,16.02
2023-04-10T12:55:17.414Z,16.27
2023-04-10T12:57:47.195Z,16.15
2023-04-10T13:00:17.877Z,16.15
2023-04-10T13:02:46.956Z,16.25
2023-04-10T13:05:15.730Z,16.36
2023-04-10T13:07:43.349Z,16.70
2023-04-10T13:10:11.103Z,16.42
2023-04-10T13:12:40.094Z,16.45
2023-04-10T13:15:08.095Z,16.41
2023-04-10T13:17:35.883Z,16.46
2023-04-10T13:20:04.680Z,16.36
2023-04-10T13:22:32.215Z,16.27
2023-04-10T13:24:59.700Z,15.98
2023-04-10T13:27:27.080Z,15.90
2023-04-10T13:29:55.539Z,15.83
2023-04-10T13:32:22.957Z,15.92
2023-04-10T13:34:50.557Z,15.96
2023-04-10T13:37:17.995Z,16.00
2023-04-10T13:39:45.341Z,16.13
2023-04-10T13:42:13.676Z,16.30
2023-04-10T13:44:41.086Z,16.31
2023-04-10T13:47:08.631Z,16.35
2023-04-10T13:49:36.074Z,16.12
2023-04-10T13:52:03.517Z,16.18
2023-04-10T13:54:30.856Z,16.25
2023-04-10T13:56:59.382Z,16.19
2023-04-10T13:59:26.692Z,16.05
2023-04-10T14:01:54.059Z,15.98
2023-04-10T14:04:21.393Z,16.12
2023-04-10T14:06:51.609Z,16.00
2023-04-10T14:09:19.481Z,16.12
2023-04-10T14:11:46.766Z,16.42
2023-04-10T14:14:14.055Z,16.47
2023-04-10T14:16:41.482Z,16.49
2023-04-10T14:19:08.885Z,16.29
2023-04-10T14:21:37.253Z,16.09
2023-04-10T14:24:04.591Z,16.22
2023-04-10T14:26:31.948Z,16.17
2023-04-10T14:28:59.235Z,16.18
2023-04-10T14:31:28.404Z,16.24
2023-04-10T14:33:56.809Z,16.34
2023-04-10T14:36:24.179Z,16.59
2023-04-10T14:38:51.632Z,16.58
2023-04-10T14:41:19.027Z,16.80
2023-04-10T14:43:46.352Z,16.59
2023-04-10T14:46:13.720Z,16.45
2023-04-10T14:48:41.169Z,16.39
2023-04-10T14:51:12.868Z,16.43
2023-04-10T14:53:40.371Z,16.45
2023-04-10T14:56:14.522Z,16.46
2023-04-10T14:58:43.234Z,16.74
2023-04-10T15:01:12.041Z,16.62
2023-04-10T15:03:40.117Z,16.45
2023-04-10T15:06:07.925Z,16.47
2023-04-10T15:08:35.241Z,16.40
2023-04-10T15:11:05.083Z,16.60
2023-04-10T15:13:33.173Z,16.46
2023-04-10T15:16:00.667Z,16.49
2023-04-10T15:18:28.264Z,16.27
2023-04-10T15:20:56.099Z,16.29
2023-04-10T15:23:23.474Z,16.29
2023-04-10T15:25:51.080Z,16.18
2023-04-10T15:28:18.415Z,16.18
2023-04-10T15:30:45.916Z,16.22
2023-04-10T15:33:13.218Z,16.25
2023-04-10T15:35:40.632Z,16.29
2023-04-10T15:38:10.082Z,16.51
2023-04-10T15:40:37.604Z,16.69
2023-04-10T15:43:05.122Z,16.59
2023-04-10T15:45:32.510Z,16.54
2023-04-10T15:48:01.377Z,16.63
2023-04-10T15:51:02.022Z,16.59
2023-04-10T15:53:29.356Z,16.57
2023-04-10T15:55:56.690Z,16.43
2023-04-10T15:58:24.053Z,16.26
2023-04-10T16:00:51.324Z,16.31
2023-04-10T16:03:18.772Z,16.49
2023-04-10T16:05:48.501Z,16.39
2023-04-10T16:08:15.823Z,16.33
2023-04-10T16:10:43.195Z,16.32
2023-04-10T16:13:10.670Z,16.29
2023-04-10T16:15:38.797Z,16.28
2023-04-10T16:18:07.781Z,16.30
2023-04-10T16:20:35.153Z,16.30
2023-04-10T16:23:02.553Z,16.23
2023-04-10T16:25:30.783Z,16.29
2023-04-10T16:27:58.130Z,16.28
2023-04-10T16:30:25.511Z,16.14
2023-04-10T16:32:52.978Z,16.10
2023-04-10T16:35:20.333Z,16.19
2023-04-10T16:37:47.988Z,16.06
2023-04-10T16:40:16.092Z,16.03
2023-04-10T16:42:43.681Z,15.98
2023-04-10T16:45:11.396Z,15.94
2023-04-10T16:47:40.478Z,15.92
2023-04-10T16:50:08.818Z,15.90
2023-04-10T16:52:37.352Z,15.89
2023-04-10T16:55:05.611Z,15.89
2023-04-10T16:57:33.286Z,15.78
2023-04-10T17:00:01.036Z,15.77
2023-04-10T17:02:29.833Z,15.77
2023-04-10T17:04:57.466Z,15.73
2023-04-10T17:07:24.970Z,15.73
2023-04-10T17:09:52.319Z,15.72
2023-04-10T17:12:19.753Z,15.63
2023-04-10T17:14:47.257Z,15.67
2023-04-10T17:17:14.703Z,15.63
2023-04-10T17:19:42.204Z,15.52
2023-04-10T17:22:16.255Z,15.50
2023-04-10T17:24:44.215Z,15.51
2023-04-10T17:27:14.233Z,15.39
2023-04-10T17:29:41.704Z,15.44
2023-04-10T17:32:09.545Z,15.43
2023-04-10T17:34:36.940Z,15.32
2023-04-10T17:37:04.359Z,15.32
2023-04-10T17:39:31.764Z,15.33
2023-04-10T17:41:59.178Z,15.30
2023-04-10T17:44:26.585Z,15.24
2023-04-10T17:46:54.292Z,15.22
2023-04-10T17:49:22.250Z,15.14
2023-04-10T17:51:49.845Z,15.10
2023-04-10T17:54:17.335Z,15.07
2023-04-10T17:56:44.904Z,15.04
2023-04-10T17:59:12.336Z,14.97
2023-04-10T18:01:39.915Z,14.91
2023-04-10T18:04:07.574Z,14.92
2023-04-10T18:06:35.156Z,14.83
2023-04-10T18:09:02.653Z,14.88
2023-04-10T18:11:30.265Z,14.85
2023-04-10T18:13:57.698Z,14.74
2023-04-10T18:16:25.193Z,14.76
2023-04-10T18:18:52.903Z,14.76
2023-04-10T18:21:20.973Z,14.60
2023-04-10T18:23:48.529Z,14.56
2023-04-10T18:26:16.500Z,14.54
2023-04-10T18:28:46.294Z,14.47
2023-04-10T18:31:16.117Z,14.57
2023-04-10T18:33:43.740Z,14.49
2023-04-10T18:36:11.290Z,14.45
2023-04-10T18:38:41.146Z,14.43
2023-04-10T18:41:08.806Z,14.44
2023-04-10T18:43:37.672Z,14.39
2023-04-10T18:46:06.192Z,14.24
2023-04-10T18:48:42.869Z,14.27
2023-04-10T18:51:11.620Z,14.19
2023-04-10T18:53:39.896Z,14.24
2023-04-10T18:56:07.432Z,14.18
2023-04-10T18:58:35.609Z,14.25
2023-04-10T19:01:03.444Z,14.20
2023-04-10T19:03:31.135Z,14.17
2023-04-10T19:05:58.766Z,14.04
2023-04-10T19:08:26.260Z,13.95
2023-04-10T19:10:53.689Z,14.03
2023-04-10T19:13:22.868Z,14.06
2023-04-10T19:15:51.232Z,13.93
2023-04-10T19:18:18.580Z,13.82
2023-04-10T19:20:50.914Z,13.85
2023-04-10T19:23:21.086Z,13.87
2023-04-10T19:25:53.014Z,13.83
2023-04-10T19:28:20.576Z,13.75
2023-04-10T19:30:48.167Z,13.69
2023-04-10T19:33:15.679Z,13.77
2023-04-10T19:35:43.055Z,13.72
2023-04-10T19:38:10.637Z,13.57
2023-04-10T19:40:38.148Z,13.70
2023-04-10T19:43:05.615Z,13.62
2023-04-10T19:45:37.347Z,13.65
2023-04-10T19:48:05.353Z,13.68
2023-04-10T19:50:34.381Z,13.66
2023-04-10T19:53:02.070Z,13.51
2023-04-10T19:55:30.270Z,13.53
2023-04-10T19:57:58.586Z,13.59
2023-04-10T20:00:26.599Z,13.62
2023-04-10T20:02:54.213Z,13.64
2023-04-10T20:05:22.546Z,13.64
2023-04-10T20:07:51.268Z,13.51
2023-04-10T20:10:19.414Z,13.50
2023-04-10T20:12:46.906Z,13.57
2023-04-10T20:15:15.130Z,13.50
2023-04-10T20:17:42.745Z,13.53
2023-04-10T20:20:12.245Z,13.53
2023-04-10T20:22:40.868Z,13.42
2023-04-10T20:25:08.875Z,13.41
2023-04-10T20:27:36.264Z,13.28
2023-04-10T20:30:04.321Z,13.34
2023-04-10T20:32:31.640Z,13.17
2023-04-10T20:34:58.969Z,13.00
2023-04-10T20:37:26.356Z,13.01
2023-04-10T20:39:53.820Z,13.05
2023-04-10T20:42:23.164Z,13.09
2023-04-10T20:44:50.596Z,12.87
2023-04-10T20:47:17.983Z,12.80
2023-04-10T20:49:45.354Z,12.95
2023-04-10T20:52:12.749Z,13.02
2023-04-10T20:54:39.983Z,12.92
2023-04-10T20:57:07.334Z,12.76
2023-04-10T20:59:36.056Z,12.64
2023-04-10T21:02:03.549Z,12.64
2023-04-10T21:04:31.247Z,12.56
2023-04-10T21:06:58.558Z,12.66
2023-04-10T21:09:25.943Z,12.74
2023-04-10T21:11:53.218Z,12.64
2023-04-10T21:14:20.484Z,12.60
2023-04-10T21:16:48.381Z,12.59
2023-04-10T21:19:15.860Z,12.54
2023-04-10T21:21:43.119Z,12.48
2023-04-10T21:24:10.670Z,12.36
2023-04-10T21:26:37.958Z,12.36
2023-04-10T21:29:05.390Z,12.31
2023-04-10T21:31:32.691Z,12.20
2023-04-10T21:34:00.037Z,12.12
2023-04-10T21:36:27.325Z,12.08
2023-04-10T21:38:54.717Z,12.15
2023-04-10T21:41:22.260Z,12.04
2023-04-10T21:43:49.575Z,12.12
2023-04-10T21:46:16.926Z,12.17
2023-04-10T21:48:44.236Z,12.23
2023-04-10T21:51:11.515Z,12.17
2023-04-10T21:53:38.808Z,12.15
2023-04-10T21:56:06.536Z,12.18
2023-04-10T21:58:33.912Z,12.22
2023-04-10T22:01:01.291Z,12.10
2023-04-10T22:03:28.950Z,12.07
2023-04-10T22:05:56.401Z,11.91
2023-04-10T22:08:23.723Z,11.90
2023-04-10T22:10:51.087Z,11.95
2023-04-10T22:13:29.836Z,11.86
2023-04-10T22:15:59.942Z,11.85
2023-04-10T22:18:27.526Z,11.73
2023-04-10T22:20:55.312Z,11.61
2023-04-10T22:23:25.209Z,11.63
2023-04-10T22:25:52.472Z,11.69
2023-04-10T22:28:19.817Z,11.75
2023-04-10T22:30:47.155Z,11.59
2023-04-10T22:33:15.467Z,11.58
2023-04-10T22:35:42.802Z,11.62
2023-04-10T22:38:10.205Z,11.61
2023-04-10T22:40:37.523Z,11.63
2023-04-10T22:43:04.796Z,11.57
2023-04-10T22:45:32.077Z,11.38
2023-04-10T22:47:59.354Z,11.43
2023-04-10T22:50:26.677Z,11.55
2023-04-10T22:52:54.121Z,11.51
2023-04-10T22:55:21.457Z,11.63
2023-04-10T22:57:49.416Z,11.54
2023-04-10T23:00:16.920Z,11.60
2023-04-10T23:02:44.387Z,11.58
2023-04-10T23:05:11.692Z,11.56
2023-04-10T23:07:39.045Z,11.50
2023-04-10T23:10:07.194Z,11.42
2023-04-10T23:12:34.594Z,11.39
2023-04-10T23:15:01.870Z,11.38
2023-04-10T23:17:29.324Z,11.32
2023-04-10T23:19:56.785Z,11.29
2023-04-10T23:22:24.080Z,11.43
2023-04-10T23:24:55.185Z,11.43
2023-04-10T23:27:22.784Z,11.33
2023-04-10T23:29:50.306Z,11.34
2023-04-10T23:32:17.589Z,11.39
2023-04-10T23:34:44.962Z,11.22
2023-04-10T23:37:12.310Z,11.30
2023-04-10T23:39:39.827Z,11.16
2023-04-10T23:42:07.156Z,11.11
2023-04-10T23:44:34.475Z,11.05
2023-04-10T23:47:01.815Z,11.11
2023-04-10T23:49:29.390Z,11.17
2023-04-10T23:51:56.728Z,11.22
2023-04-10T23:54:24.006Z,11.23
2023-04-10T23:56:51.258Z,11.11
2023-04-10T23:59:19.208Z,11.07
